Mountain Pass, California
Current Conditions -  °F | °C
As of 3:56 AM on Tuesday 21 Oct 2014 (Local Time) from KHND Reporting Station
Clear Clear  
Wind Chill: 69°   Ceiling: Unl
Heat Index: 69°   Visibility: 10mi
Dew Point: 39°   Wind: 8mph
Humidity: 33%   Direction: 230°SW
Pressure: 29.88"   Gusts: NA
Location:  35.47°N, 115.54°W
Report Text: KHND 211056Z AUTO 23007KT 10SM CLR 21/04 A2988 RMK AO2 T02050038 SLP095
Loading
Personal Weather Stations






























Interactive Weather Map
Tropical Storm Tracking
New forecast layout! Learn more

10-Day Weather Forecast

Advertisements
Track Severe Weather on mobile